sensor_id;sensor_type;location;lat;lon;timestamp;temperature;humidity
72202;SHT30;60105;54.956;73.412;2023-03-01T00:02:41;2.60;75.20
72202;SHT30;60105;54.956;73.412;2023-03-01T00:05:48;2.53;75.83
72202;SHT30;60105;54.956;73.412;2023-03-01T00:08:54;2.62;75.80
72202;SHT30;60105;54.956;73.412;2023-03-01T00:12:05;2.69;75.34
72202;SHT30;60105;54.956;73.412;2023-03-01T00:15:07;2.67;75.52
72202;SHT30;60105;54.956;73.412;2023-03-01T00:18:08;2.84;74.88
72202;SHT30;60105;54.956;73.412;2023-03-01T00:21:20;2.84;74.63
72202;SHT30;60105;54.956;73.412;2023-03-01T00:24:22;2.89;74.46
72202;SHT30;60105;54.956;73.412;2023-03-01T00:27:28;2.83;74.33
72202;SHT30;60105;54.956;73.412;2023-03-01T00:30:30;2.73;74.46
72202;SHT30;60105;54.956;73.412;2023-03-01T00:33:41;2.66;74.95
72202;SHT30;60105;54.956;73.412;2023-03-01T00:36:48;2.73;74.82
72202;SHT30;60105;54.956;73.412;2023-03-01T00:39:50;2.66;75.07
72202;SHT30;60105;54.956;73.412;2023-03-01T00:42:51;2.70;75.03
72202;SHT30;60105;54.956;73.412;2023-03-01T00:45:52;2.72;75.27
72202;SHT30;60105;54.956;73.412;2023-03-01T00:48:54;2.66;75.52
72202;SHT30;60105;54.956;73.412;2023-03-01T00:52:00;2.67;75.80
72202;SHT30;60105;54.956;73.412;2023-03-01T00:55:03;2.70;75.54
72202;SHT30;60105;54.956;73.412;2023-03-01T00:58:04;2.70;75.85
72202;SHT30;60105;54.956;73.412;2023-03-01T01:01:16;2.70;75.96
72202;SHT30;60105;54.956;73.412;2023-03-01T01:04:39;2.72;76.10
72202;SHT30;60105;54.956;73.412;2023-03-01T01:07:40;2.70;76.27
72202;SHT30;60105;54.956;73.412;2023-03-01T01:10:44;2.53;76.87
72202;SHT30;60105;54.956;73.412;2023-03-01T01:13:55;2.49;77.09
72202;SHT30;60105;54.956;73.412;2023-03-01T01:16:57;2.48;77.14
72202;SHT30;60105;54.956;73.412;2023-03-01T01:19:58;2.45;77.35
72202;SHT30;60105;54.956;73.412;2023-03-01T01:23:05;2.48;77.26
72202;SHT30;60105;54.956;73.412;2023-03-01T01:26:18;2.56;76.97
72202;SHT30;60105;54.956;73.412;2023-03-01T01:29:39;2.67;76.78
72202;SHT30;60105;54.956;73.412;2023-03-01T01:32:45;2.63;76.66
72202;SHT30;60105;54.956;73.412;2023-03-01T01:35:51;2.72;76.65
72202;SHT30;60105;54.956;73.412;2023-03-01T01:39:38;2.63;77.04
72202;SHT30;60105;54.956;73.412;2023-03-01T01:42:49;2.69;76.97
72202;SHT30;60105;54.956;73.412;2023-03-01T01:45:55;2.64;77.06
72202;SHT30;60105;54.956;73.412;2023-03-01T01:49:43;2.77;76.63
72202;SHT30;60105;54.956;73.412;2023-03-01T01:52:46;2.77;76.94
72202;SHT30;60105;54.956;73.412;2023-03-01T01:55:54;2.83;76.75
72202;SHT30;60105;54.956;73.412;2023-03-01T01:59:40;2.94;76.68
72202;SHT30;60105;54.956;73.412;2023-03-01T02:02:45;3.00;76.43
72202;SHT30;60105;54.956;73.412;2023-03-01T02:08:52;2.96;76.61
72202;SHT30;60105;54.956;73.412;2023-03-01T02:12:04;3.00;76.41
72202;SHT30;60105;54.956;73.412;2023-03-01T02:15:16;2.96;76.62
72202;SHT30;60105;54.956;73.412;2023-03-01T02:18:23;3.04;76.43
72202;SHT30;60105;54.956;73.412;2023-03-01T02:21:41;2.96;76.65
72202;SHT30;60105;54.956;73.412;2023-03-01T02:28:35;3.01;76.78
72202;SHT30;60105;54.956;73.412;2023-03-01T02:31:36;3.04;76.52
72202;SHT30;60105;54.956;73.412;2023-03-01T02:34:57;3.15;76.36
72202;SHT30;60105;54.956;73.412;2023-03-01T02:38:00;3.15;76.44
72202;SHT30;60105;54.956;73.412;2023-03-01T02:41:07;3.07;76.55
72202;SHT30;60105;54.956;73.412;2023-03-01T02:44:39;3.05;76.63
72202;SHT30;60105;54.956;73.412;2023-03-01T02:47:46;2.90;77.40
72202;SHT30;60105;54.956;73.412;2023-03-01T02:51:03;2.87;77.62
72202;SHT30;60105;54.956;73.412;2023-03-01T02:57:27;2.83;77.83
72202;SHT30;60105;54.956;73.412;2023-03-01T03:00:34;2.83;78.34
72202;SHT30;60105;54.956;73.412;2023-03-01T03:03:38;2.83;79.01
72202;SHT30;60105;54.956;73.412;2023-03-01T03:06:40;2.70;79.85
72202;SHT30;60105;54.956;73.412;2023-03-01T03:09:51;2.79;80.07
72202;SHT30;60105;54.956;73.412;2023-03-01T03:13:03;2.70;80.10
72202;SHT30;60105;54.956;73.412;2023-03-01T03:16:06;2.72;80.36
72202;SHT30;60105;54.956;73.412;2023-03-01T03:19:39;2.76;80.47
72202;SHT30;60105;54.956;73.412;2023-03-01T03:22:41;2.79;80.40
72202;SHT30;60105;54.956;73.412;2023-03-01T03:25:42;2.94;80.01
72202;SHT30;60105;54.956;73.412;2023-03-01T03:28:53;3.03;79.76
72202;SHT30;60105;54.956;73.412;2023-03-01T03:32:05;2.99;79.83
72202;SHT30;60105;54.956;73.412;2023-03-01T03:35:08;2.99;80.36
72202;SHT30;60105;54.956;73.412;2023-03-01T03:38:12;3.00;80.68
72202;SHT30;60105;54.956;73.412;2023-03-01T03:41:17;2.80;81.19
72202;SHT30;60105;54.956;73.412;2023-03-01T03:44:39;2.79;82.12
72202;SHT30;60105;54.956;73.412;2023-03-01T03:47:41;2.77;82.35
72202;SHT30;60105;54.956;73.412;2023-03-01T03:50:47;2.82;82.32
72202;SHT30;60105;54.956;73.412;2023-03-01T03:53:49;2.86;82.15
72202;SHT30;60105;54.956;73.412;2023-03-01T03:56:55;2.87;82.01
72202;SHT30;60105;54.956;73.412;2023-03-01T03:59:57;2.87;82.14
72202;SHT30;60105;54.956;73.412;2023-03-01T04:02:58;2.82;82.40
72202;SHT30;60105;54.956;73.412;2023-03-01T04:06:00;2.87;82.49
72202;SHT30;60105;54.956;73.412;2023-03-01T04:09:39;2.82;82.40
72202;SHT30;60105;54.956;73.412;2023-03-01T04:12:46;2.86;82.25
72202;SHT30;60105;54.956;73.412;2023-03-01T04:15:58;2.93;82.25
72202;SHT30;60105;54.956;73.412;2023-03-01T04:19:39;2.99;82.08
72202;SHT30;60105;54.956;73.412;2023-03-01T04:22:43;3.08;81.66
72202;SHT30;60105;54.956;73.412;2023-03-01T04:25:55;3.11;81.62
72202;SHT30;60105;54.956;73.412;2023-03-01T04:29:39;3.13;81.53
72202;SHT30;60105;54.956;73.412;2023-03-01T04:32:45;3.04;81.71
72202;SHT30;60105;54.956;73.412;2023-03-01T04:35:47;3.07;81.70
72202;SHT30;60105;54.956;73.412;2023-03-01T04:39:39;3.00;82.12
72202;SHT30;60105;54.956;73.412;2023-03-01T04:42:46;3.04;82.01
72202;SHT30;60105;54.956;73.412;2023-03-01T04:45:48;3.10;81.85
72202;SHT30;60105;54.956;73.412;2023-03-01T04:48:54;3.21;81.45
72202;SHT30;60105;54.956;73.412;2023-03-01T04:52:05;3.27;81.01
72202;SHT30;60105;54.956;73.412;2023-03-01T04:55:07;3.32;80.96
72202;SHT30;60105;54.956;73.412;2023-03-01T04:58:08;3.35;80.83
72202;SHT30;60105;54.956;73.412;2023-03-01T05:01:18;3.28;81.07
72202;SHT30;60105;54.956;73.412;2023-03-01T05:04:39;3.25;81.24
72202;SHT30;60105;54.956;73.412;2023-03-01T05:07:51;3.24;81.37
72202;SHT30;60105;54.956;73.412;2023-03-01T05:10:53;3.24;81.37
72202;SHT30;60105;54.956;73.412;2023-03-01T05:14:39;3.30;81.14
72202;SHT30;60105;54.956;73.412;2023-03-01T05:17:49;3.32;81.14
72202;SHT30;60105;54.956;73.412;2023-03-01T05:21:08;3.32;80.85
72202;SHT30;60105;54.956;73.412;2023-03-01T05:24:09;3.35;80.82
72202;SHT30;60105;54.956;73.412;2023-03-01T05:27:12;3.38;80.75
72202;SHT30;60105;54.956;73.412;2023-03-01T05:30:18;3.38;80.63
72202;SHT30;60105;54.956;73.412;2023-03-01T05:33:30;3.42;80.61
72202;SHT30;60105;54.956;73.412;2023-03-01T05:36:31;3.41;80.25
72202;SHT30;60105;54.956;73.412;2023-03-01T05:39:39;3.54;79.96
72202;SHT30;60105;54.956;73.412;2023-03-01T05:42:43;3.62;79.59
72202;SHT30;60105;54.956;73.412;2023-03-01T05:45:44;3.72;79.33
72202;SHT30;60105;54.956;73.412;2023-03-01T05:48:46;3.75;79.11
72202;SHT30;60105;54.956;73.412;2023-03-01T05:51:51;3.78;78.77
72202;SHT30;60105;54.956;73.412;2023-03-01T05:54:53;3.83;78.38
72202;SHT30;60105;54.956;73.412;2023-03-01T05:57:54;3.94;78.10
72202;SHT30;60105;54.956;73.412;2023-03-01T06:01:00;3.87;78.20
72202;SHT30;60105;54.956;73.412;2023-03-01T06:04:38;3.96;77.81
72202;SHT30;60105;54.956;73.412;2023-03-01T06:07:40;3.93;77.83
72202;SHT30;60105;54.956;73.412;2023-03-01T06:10:47;3.75;78.14
72202;SHT30;60105;54.956;73.412;2023-03-01T06:13:48;3.71;78.50
72202;SHT30;60105;54.956;73.412;2023-03-01T06:16:50;3.61;79.02
72202;SHT30;60105;54.956;73.412;2023-03-01T06:20:01;3.58;79.20
72202;SHT30;60105;54.956;73.412;2023-03-01T06:23:09;3.54;79.43
72202;SHT30;60105;54.956;73.412;2023-03-01T06:26:10;3.50;79.63
72202;SHT30;60105;54.956;73.412;2023-03-01T06:29:39;3.54;79.38
72202;SHT30;60105;54.956;73.412;2023-03-01T06:32:41;3.45;79.48
72202;SHT30;60105;54.956;73.412;2023-03-01T06:35:45;3.50;79.46
72202;SHT30;60105;54.956;73.412;2023-03-01T06:38:47;3.51;79.49
72202;SHT30;60105;54.956;73.412;2023-03-01T06:41:48;3.51;79.32
72202;SHT30;60105;54.956;73.412;2023-03-01T06:44:49;3.52;79.29
72202;SHT30;60105;54.956;73.412;2023-03-01T06:47:50;3.56;79.17
72202;SHT30;60105;54.956;73.412;2023-03-01T06:51:00;3.52;78.88
72202;SHT30;60105;54.956;73.412;2023-03-01T06:54:08;3.48;79.36
72202;SHT30;60105;54.956;73.412;2023-03-01T06:57:09;3.55;78.99
72202;SHT30;60105;54.956;73.412;2023-03-01T07:00:20;3.52;78.83
72202;SHT30;60105;54.956;73.412;2023-03-01T07:03:23;3.52;79.07
72202;SHT30;60105;54.956;73.412;2023-03-01T07:06:30;3.66;78.68
72202;SHT30;60105;54.956;73.412;2023-03-01T07:09:39;3.72;78.62
72202;SHT30;60105;54.956;73.412;2023-03-01T07:12:50;3.73;78.18
72202;SHT30;60105;54.956;73.412;2023-03-01T07:15:54;3.83;78.03
72202;SHT30;60105;54.956;73.412;2023-03-01T07:19:39;3.82;77.86
72202;SHT30;60105;54.956;73.412;2023-03-01T07:22:41;3.87;77.81
72202;SHT30;60105;54.956;73.412;2023-03-01T07:25:43;3.96;77.30
72202;SHT30;60105;54.956;73.412;2023-03-01T07:28:54;3.96;77.13
72202;SHT30;60105;54.956;73.412;2023-03-01T07:31:55;3.96;77.10
72202;SHT30;60105;54.956;73.412;2023-03-01T07:35:02;3.93;77.00
72202;SHT30;60105;54.956;73.412;2023-03-01T07:38:09;4.03;76.98
72202;SHT30;60105;54.956;73.412;2023-03-01T07:41:10;4.04;76.70
72202;SHT30;60105;54.956;73.412;2023-03-01T07:44:39;3.92;77.29
72202;SHT30;60105;54.956;73.412;2023-03-01T07:47:51;3.97;77.30
72202;SHT30;60105;54.956;73.412;2023-03-01T07:50:53;3.99;77.42
72202;SHT30;60105;54.956;73.412;2023-03-01T07:53:54;3.99;77.54
72202;SHT30;60105;54.956;73.412;2023-03-01T07:57:00;3.89;77.87
72202;SHT30;60105;54.956;73.412;2023-03-01T08:00:03;3.90;78.14
72202;SHT30;60105;54.956;73.412;2023-03-01T08:03:12;3.94;78.29
72202;SHT30;60105;54.956;73.412;2023-03-01T08:06:16;3.92;78.31
72202;SHT30;60105;54.956;73.412;2023-03-01T08:09:39;3.85;79.07
72202;SHT30;60105;54.956;73.412;2023-03-01T08:12:45;3.76;79.54
72202;SHT30;60105;54.956;73.412;2023-03-01T08:15:47;3.78;79.71
72202;SHT30;60105;54.956;73.412;2023-03-01T08:18:48;3.71;79.81
72202;SHT30;60105;54.956;73.412;2023-03-01T08:21:49;3.69;79.83
72202;SHT30;60105;54.956;73.412;2023-03-01T08:24:50;3.69;80.16
72202;SHT30;60105;54.956;73.412;2023-03-01T08:27:52;3.71;79.94
72202;SHT30;60105;54.956;73.412;2023-03-01T08:30:58;3.65;80.28
72202;SHT30;60105;54.956;73.412;2023-03-01T08:34:39;3.71;80.15
72202;SHT30;60105;54.956;73.412;2023-03-01T08:37:48;3.65;80.16
72202;SHT30;60105;54.956;73.412;2023-03-01T08:40:50;3.59;80.39
72202;SHT30;60105;54.956;73.412;2023-03-01T08:43:52;3.54;80.67
72202;SHT30;60105;54.956;73.412;2023-03-01T08:46:54;3.50;81.00
72202;SHT30;60105;54.956;73.412;2023-03-01T08:49:56;3.34;81.76
72202;SHT30;60105;54.956;73.412;2023-03-01T08:52:57;3.42;81.59
72202;SHT30;60105;54.956;73.412;2023-03-01T08:56:04;3.38;81.47
72202;SHT30;60105;54.956;73.412;2023-03-01T08:59:39;3.32;82.10
72202;SHT30;60105;54.956;73.412;2023-03-01T09:02:40;3.31;82.11
72202;SHT30;60105;54.956;73.412;2023-03-01T09:05:42;3.36;82.13
72202;SHT30;60105;54.956;73.412;2023-03-01T09:08:45;3.34;82.04
72202;SHT30;60105;54.956;73.412;2023-03-01T09:11:46;3.28;82.01
72202;SHT30;60105;54.956;73.412;2023-03-01T09:14:50;3.30;82.00
72202;SHT30;60105;54.956;73.412;2023-03-01T09:17:52;3.27;82.34
72202;SHT30;60105;54.956;73.412;2023-03-01T09:20:53;3.28;81.95
72202;SHT30;60105;54.956;73.412;2023-03-01T09:24:14;3.34;82.09
72202;SHT30;60105;54.956;73.412;2023-03-01T09:27:15;3.32;81.85
72202;SHT30;60105;54.956;73.412;2023-03-01T09:30:30;3.32;82.02
72202;SHT30;60105;54.956;73.412;2023-03-01T09:33:32;3.30;82.05
72202;SHT30;60105;54.956;73.412;2023-03-01T09:36:39;3.30;82.15
72202;SHT30;60105;54.956;73.412;2023-03-01T09:39:40;3.28;82.28
72202;SHT30;60105;54.956;73.412;2023-03-01T09:43:01;3.34;82.09
72202;SHT30;60105;54.956;73.412;2023-03-01T09:46:06;3.32;82.24
72202;SHT30;60105;54.956;73.412;2023-03-01T09:49:39;3.30;82.19
72202;SHT30;60105;54.956;73.412;2023-03-01T09:52:50;3.27;82.31
72202;SHT30;60105;54.956;73.412;2023-03-01T10:06:35;3.27;82.46
72202;SHT30;60105;54.956;73.412;2023-03-01T10:09:40;3.21;82.39
72202;SHT30;60105;54.956;73.412;2023-03-01T10:12:42;3.13;82.78
72202;SHT30;60105;54.956;73.412;2023-03-01T10:15:50;3.08;82.72
72202;SHT30;60105;54.956;73.412;2023-03-01T10:19:42;2.97;83.18
72202;SHT30;60105;54.956;73.412;2023-03-01T10:22:43;3.00;83.41
72202;SHT30;60105;54.956;73.412;2023-03-01T10:26:03;3.04;83.11
72202;SHT30;60105;54.956;73.412;2023-03-01T10:30:13;3.07;83.26
72202;SHT30;60105;54.956;73.412;2023-03-01T10:33:35;2.97;83.23
72202;SHT30;60105;54.956;73.412;2023-03-01T10:36:51;3.00;83.28
72202;SHT30;60105;54.956;73.412;2023-03-01T10:40:06;2.87;83.36
72202;SHT30;60105;54.956;73.412;2023-03-01T10:43:11;2.82;83.74
72202;SHT30;60105;54.956;73.412;2023-03-01T10:46:34;2.77;83.79
72202;SHT30;60105;54.956;73.412;2023-03-01T10:49:39;2.77;84.15
72202;SHT30;60105;54.956;73.412;2023-03-01T10:52:41;2.80;84.10
72202;SHT30;60105;54.956;73.412;2023-03-01T10:55:43;2.79;83.94
72202;SHT30;60105;54.956;73.412;2023-03-01T10:58:59;2.77;84.26
72202;SHT30;60105;54.956;73.412;2023-03-01T11:05:20;2.72;84.46
72202;SHT30;60105;54.956;73.412;2023-03-01T11:08:37;2.66;84.48
72202;SHT30;60105;54.956;73.412;2023-03-01T11:11:38;2.63;84.78
72202;SHT30;60105;54.956;73.412;2023-03-01T11:14:55;2.56;84.91
72202;SHT30;60105;54.956;73.412;2023-03-01T11:17:58;2.57;85.20
72202;SHT30;60105;54.956;73.412;2023-03-01T11:21:01;2.53;85.22
72202;SHT30;60105;54.956;73.412;2023-03-01T11:24:13;2.49;85.73
72202;SHT30;60105;54.956;73.412;2023-03-01T11:27:25;2.52;85.54
72202;SHT30;60105;54.956;73.412;2023-03-01T11:30:34;2.55;85.52
72202;SHT30;60105;54.956;73.412;2023-03-01T11:36:59;2.50;85.33
72202;SHT30;60105;54.956;73.412;2023-03-01T11:44:00;2.52;85.72
72202;SHT30;60105;54.956;73.412;2023-03-01T11:47:39;2.45;85.78
72202;SHT30;60105;54.956;73.412;2023-03-01T11:50:46;2.46;86.00
72202;SHT30;60105;54.956;73.412;2023-03-01T12:08:01;2.49;86.11
72202;SHT30;60105;54.956;73.412;2023-03-01T12:28:37;2.48;86.07
72202;SHT30;60105;54.956;73.412;2023-03-01T12:35:20;2.49;86.19
72202;SHT30;60105;54.956;73.412;2023-03-01T12:48:31;2.60;85.87
72202;SHT30;60105;54.956;73.412;2023-03-01T12:51:44;2.53;85.84
72202;SHT30;60105;54.956;73.412;2023-03-01T12:54:48;2.55;85.78
72202;SHT30;60105;54.956;73.412;2023-03-01T12:58:19;2.52;85.60
72202;SHT30;60105;54.956;73.412;2023-03-01T13:09:07;2.48;85.84
72202;SHT30;60105;54.956;73.412;2023-03-01T13:16:39;2.46;85.81
72202;SHT30;60105;54.956;73.412;2023-03-01T13:19:59;2.45;86.03
72202;SHT30;60105;54.956;73.412;2023-03-01T13:26:24;2.43;86.18
72202;SHT30;60105;54.956;73.412;2023-03-01T13:29:56;2.43;86.12
72202;SHT30;60105;54.956;73.412;2023-03-01T13:39:39;2.39;86.57
72202;SHT30;60105;54.956;73.412;2023-03-01T13:42:42;2.38;86.24
72202;SHT30;60105;54.956;73.412;2023-03-01T13:45:45;2.36;86.46
72202;SHT30;60105;54.956;73.412;2023-03-01T13:48:53;2.42;86.51
72202;SHT30;60105;54.956;73.412;2023-03-01T13:51:56;2.45;86.36
72202;SHT30;60105;54.956;73.412;2023-03-01T13:55:10;2.42;86.41
72202;SHT30;60105;54.956;73.412;2023-03-01T13:58:25;2.46;86.17
72202;SHT30;60105;54.956;73.412;2023-03-01T14:01:37;2.52;85.99
72202;SHT30;60105;54.956;73.412;2023-03-01T14:04:39;2.57;85.67
72202;SHT30;60105;54.956;73.412;2023-03-01T14:07:51;2.62;85.54
72202;SHT30;60105;54.956;73.412;2023-03-01T14:14:42;2.53;85.24
72202;SHT30;60105;54.956;73.412;2023-03-01T14:20:55;2.60;85.21
72202;SHT30;60105;54.956;73.412;2023-03-01T14:24:17;2.64;85.09
72202;SHT30;60105;54.956;73.412;2023-03-01T14:27:19;2.67;84.81
72202;SHT30;60105;54.956;73.412;2023-03-01T14:30:37;2.67;84.84
72202;SHT30;60105;54.956;73.412;2023-03-01T14:33:39;2.70;84.62
72202;SHT30;60105;54.956;73.412;2023-03-01T14:36:46;2.69;84.41
72202;SHT30;60105;54.956;73.412;2023-03-01T14:40:00;2.70;84.13
72202;SHT30;60105;54.956;73.412;2023-03-01T14:43:18;2.69;84.02
72202;SHT30;60105;54.956;73.412;2023-03-01T14:46:30;2.72;83.80
72202;SHT30;60105;54.956;73.412;2023-03-01T14:49:43;2.73;83.80
72202;SHT30;60105;54.956;73.412;2023-03-01T14:52:46;2.76;83.58
72202;SHT30;60105;54.956;73.412;2023-03-01T14:55:53;2.76;83.41
72202;SHT30;60105;54.956;73.412;2023-03-01T14:59:41;2.75;83.20
72202;SHT30;60105;54.956;73.412;2023-03-01T15:02:55;2.75;83.20
72202;SHT30;60105;54.956;73.412;2023-03-01T15:06:08;2.79;83.07
72202;SHT30;60105;54.956;73.412;2023-03-01T15:09:39;2.83;82.93
72202;SHT30;60105;54.956;73.412;2023-03-01T15:12:46;2.86;82.61
72202;SHT30;60105;54.956;73.412;2023-03-01T15:16:01;2.87;82.41
72202;SHT30;60105;54.956;73.412;2023-03-01T15:19:39;2.90;82.57
72202;SHT30;60105;54.956;73.412;2023-03-01T15:22:44;2.93;82.14
72202;SHT30;60105;54.956;73.412;2023-03-01T15:25:53;2.94;82.16
72202;SHT30;60105;54.956;73.412;2023-03-01T15:29:39;3.00;81.83
72202;SHT30;60105;54.956;73.412;2023-03-01T15:32:41;2.96;81.61
72202;SHT30;60105;54.956;73.412;2023-03-01T15:35:51;2.94;81.87
72202;SHT30;60105;54.956;73.412;2023-03-01T15:39:41;2.97;81.74
72202;SHT30;60105;54.956;73.412;2023-03-01T15:42:44;2.97;81.84
72202;SHT30;60105;54.956;73.412;2023-03-01T15:45:56;3.00;81.61
72202;SHT30;60105;54.956;73.412;2023-03-01T15:49:41;3.01;81.45
72202;SHT30;60105;54.956;73.412;2023-03-01T15:52:44;3.05;81.44
72202;SHT30;60105;54.956;73.412;2023-03-01T15:55:45;3.01;81.44
72202;SHT30;60105;54.956;73.412;2023-03-01T15:58:50;3.00;81.40
72202;SHT30;60105;54.956;73.412;2023-03-01T16:01:51;2.99;81.48
72202;SHT30;60105;54.956;73.412;2023-03-01T16:05:01;2.99;81.68
72202;SHT30;60105;54.956;73.412;2023-03-01T16:08:08;3.01;81.72
72202;SHT30;60105;54.956;73.412;2023-03-01T16:11:16;3.01;81.53
72202;SHT30;60105;54.956;73.412;2023-03-01T16:14:39;3.03;81.64
72202;SHT30;60105;54.956;73.412;2023-03-01T16:17:40;3.05;81.40
72202;SHT30;60105;54.956;73.412;2023-03-01T16:20:41;3.00;81.46
72202;SHT30;60105;54.956;73.412;2023-03-01T16:23:53;2.99;81.44
72202;SHT30;60105;54.956;73.412;2023-03-01T16:27:03;2.97;81.44
72202;SHT30;60105;54.956;73.412;2023-03-01T16:30:06;3.03;81.64
72202;SHT30;60105;54.956;73.412;2023-03-01T16:33:17;3.03;81.54
72202;SHT30;60105;54.956;73.412;2023-03-01T16:36:25;3.00;81.49
72202;SHT30;60105;54.956;73.412;2023-03-01T16:39:38;3.01;81.45
72202;SHT30;60105;54.956;73.412;2023-03-01T16:42:40;3.05;81.43
72202;SHT30;60105;54.956;73.412;2023-03-01T16:45:41;3.08;81.58
72202;SHT30;60105;54.956;73.412;2023-03-01T16:48:51;3.10;81.40
72202;SHT30;60105;54.956;73.412;2023-03-01T16:51:55;3.04;81.48
72202;SHT30;60105;54.956;73.412;2023-03-01T16:55:03;3.05;81.66
72202;SHT30;60105;54.956;73.412;2023-03-01T16:58:15;3.05;81.75
72202;SHT30;60105;54.956;73.412;2023-03-01T17:01:22;3.08;81.53
72202;SHT30;60105;54.956;73.412;2023-03-01T17:04:39;3.07;81.57
72202;SHT30;60105;54.956;73.412;2023-03-01T17:07:40;3.05;81.52
72202;SHT30;60105;54.956;73.412;2023-03-01T17:10:47;3.04;81.64
72202;SHT30;60105;54.956;73.412;2023-03-01T17:13:54;3.04;81.81
72202;SHT30;60105;54.956;73.412;2023-03-01T17:16:57;3.03;81.63
72202;SHT30;60105;54.956;73.412;2023-03-01T17:19:58;3.01;81.76
72202;SHT30;60105;54.956;73.412;2023-03-01T17:22:59;3.00;81.78
72202;SHT30;60105;54.956;73.412;2023-03-01T17:26:01;2.97;81.86
72202;SHT30;60105;54.956;73.412;2023-03-01T17:29:39;3.01;81.82
72202;SHT30;60105;54.956;73.412;2023-03-01T17:32:41;3.04;81.52
72202;SHT30;60105;54.956;73.412;2023-03-01T17:35:42;3.05;81.53
72202;SHT30;60105;54.956;73.412;2023-03-01T17:38:48;3.07;81.40
72202;SHT30;60105;54.956;73.412;2023-03-01T17:42:00;2.99;81.65
72202;SHT30;60105;54.956;73.412;2023-03-01T17:45:02;2.96;81.70
72202;SHT30;60105;54.956;73.412;2023-03-01T17:48:15;3.00;81.70
72202;SHT30;60105;54.956;73.412;2023-03-01T17:51:21;2.99;81.69
72202;SHT30;60105;54.956;73.412;2023-03-01T17:54:22;3.00;81.62
72202;SHT30;60105;54.956;73.412;2023-03-01T17:57:24;2.99;81.75
72202;SHT30;60105;54.956;73.412;2023-03-01T18:00:25;2.99;81.38
72202;SHT30;60105;54.956;73.412;2023-03-01T18:03:37;2.97;81.53
72202;SHT30;60105;54.956;73.412;2023-03-01T18:06:38;3.01;81.42
72202;SHT30;60105;54.956;73.412;2023-03-01T18:09:50;2.94;81.47
72202;SHT30;60105;54.956;73.412;2023-03-01T18:12:52;2.96;81.48
72202;SHT30;60105;54.956;73.412;2023-03-01T18:15:53;2.94;81.41
72202;SHT30;60105;54.956;73.412;2023-03-01T18:19:39;2.99;81.05
72202;SHT30;60105;54.956;73.412;2023-03-01T18:22:41;3.00;81.07
72202;SHT30;60105;54.956;73.412;2023-03-01T18:26:00;3.03;81.03
72202;SHT30;60105;54.956;73.412;2023-03-01T18:29:39;3.03;81.00
72202;SHT30;60105;54.956;73.412;2023-03-01T18:32:40;3.04;80.86
72202;SHT30;60105;54.956;73.412;2023-03-01T18:35:47;3.01;80.99
72202;SHT30;60105;54.956;73.412;2023-03-01T18:39:39;3.00;81.02
72202;SHT30;60105;54.956;73.412;2023-03-01T18:42:41;3.03;80.95
72202;SHT30;60105;54.956;73.412;2023-03-01T18:45:42;3.01;80.91
72202;SHT30;60105;54.956;73.412;2023-03-01T18:48:46;2.97;80.80
72202;SHT30;60105;54.956;73.412;2023-03-01T18:51:47;2.92;81.23
72202;SHT30;60105;54.956;73.412;2023-03-01T18:55:01;2.89;81.30
72202;SHT30;60105;54.956;73.412;2023-03-01T18:58:04;2.87;81.11
72202;SHT30;60105;54.956;73.412;2023-03-01T19:01:16;2.86;80.90
72202;SHT30;60105;54.956;73.412;2023-03-01T19:04:38;2.89;80.83
72202;SHT30;60105;54.956;73.412;2023-03-01T19:07:40;2.89;80.54
72202;SHT30;60105;54.956;73.412;2023-03-01T19:11:00;2.84;80.52
72202;SHT30;60105;54.956;73.412;2023-03-01T19:14:39;2.83;80.32
72202;SHT30;60105;54.956;73.412;2023-03-01T19:17:41;2.83;80.21
72202;SHT30;60105;54.956;73.412;2023-03-01T19:20:42;2.82;79.59
72202;SHT30;60105;54.956;73.412;2023-03-01T19:23:44;2.84;79.69
72202;SHT30;60105;54.956;73.412;2023-03-01T19:26:45;2.84;79.87
72202;SHT30;60105;54.956;73.412;2023-03-01T19:29:56;2.83;80.23
72202;SHT30;60105;54.956;73.412;2023-03-01T19:33:08;2.82;80.38
72202;SHT30;60105;54.956;73.412;2023-03-01T19:36:11;2.79;80.64
72202;SHT30;60105;54.956;73.412;2023-03-01T19:39:39;2.83;80.42
72202;SHT30;60105;54.956;73.412;2023-03-01T19:42:41;2.80;80.31
72202;SHT30;60105;54.956;73.412;2023-03-01T19:45:54;2.90;79.95
72202;SHT30;60105;54.956;73.412;2023-03-01T19:49:39;2.86;80.09
72202;SHT30;60105;54.956;73.412;2023-03-01T19:52:40;2.89;80.13
72202;SHT30;60105;54.956;73.412;2023-03-01T19:55:41;2.90;80.38
72202;SHT30;60105;54.956;73.412;2023-03-01T19:58:48;2.82;81.12
72202;SHT30;60105;54.956;73.412;2023-03-01T20:01:51;2.79;81.64
72202;SHT30;60105;54.956;73.412;2023-03-01T20:04:52;2.82;81.80
72202;SHT30;60105;54.956;73.412;2023-03-01T20:07:56;2.75;82.14
72202;SHT30;60105;54.956;73.412;2023-03-01T20:11:09;2.75;82.30
72202;SHT30;60105;54.956;73.412;2023-03-01T20:14:39;2.76;82.22
72202;SHT30;60105;54.956;73.412;2023-03-01T20:17:49;2.79;81.88
72202;SHT30;60105;54.956;73.412;2023-03-01T20:20:51;2.79;81.97
72202;SHT30;60105;54.956;73.412;2023-03-01T20:23:52;2.80;81.73
72202;SHT30;60105;54.956;73.412;2023-03-01T20:26:54;2.84;81.61
72202;SHT30;60105;54.956;73.412;2023-03-01T20:29:55;2.84;81.52
72202;SHT30;60105;54.956;73.412;2023-03-01T20:32:56;2.82;81.59
72202;SHT30;60105;54.956;73.412;2023-03-01T20:35:58;2.86;81.84
72202;SHT30;60105;54.956;73.412;2023-03-01T20:39:39;2.83;81.95
72202;SHT30;60105;54.956;73.412;2023-03-01T20:42:50;2.82;82.33
72202;SHT30;60105;54.956;73.412;2023-03-01T20:45:51;2.83;82.47
72202;SHT30;60105;54.956;73.412;2023-03-01T20:48:53;2.80;82.59
72202;SHT30;60105;54.956;73.412;2023-03-01T20:51:54;2.79;82.93
72202;SHT30;60105;54.956;73.412;2023-03-01T20:54:55;2.79;83.08
72202;SHT30;60105;54.956;73.412;2023-03-01T20:57:56;2.76;83.04
72202;SHT30;60105;54.956;73.412;2023-03-01T21:00:58;2.76;82.96
72202;SHT30;60105;54.956;73.412;2023-03-01T21:04:38;2.77;83.00
72202;SHT30;60105;54.956;73.412;2023-03-01T21:07:45;2.76;82.69
72202;SHT30;60105;54.956;73.412;2023-03-01T21:10:52;2.73;82.75
72202;SHT30;60105;54.956;73.412;2023-03-01T21:13:54;2.75;82.60
72202;SHT30;60105;54.956;73.412;2023-03-01T21:16:55;2.72;82.40
72202;SHT30;60105;54.956;73.412;2023-03-01T21:20:08;2.70;82.36
72202;SHT30;60105;54.956;73.412;2023-03-01T21:23:10;2.69;81.76
72202;SHT30;60105;54.956;73.412;2023-03-01T21:26:24;2.69;81.74
72202;SHT30;60105;54.956;73.412;2023-03-01T21:29:39;2.63;81.29
72202;SHT30;60105;54.956;73.412;2023-03-01T21:32:40;2.69;81.18
72202;SHT30;60105;54.956;73.412;2023-03-01T21:35:42;2.64;81.14
72202;SHT30;60105;54.956;73.412;2023-03-01T21:38:45;2.67;80.83
72202;SHT30;60105;54.956;73.412;2023-03-01T21:41:48;2.75;79.93
72202;SHT30;60105;54.956;73.412;2023-03-01T21:44:50;2.77;79.19